createdAt,value
2022-11-17T06:12:50.768Z,100.00
2022-11-17T06:15:58.045Z,100.00
2022-11-17T06:19:06.639Z,100.00
2022-11-17T06:22:12.682Z,100.00
2022-11-17T06:25:18.417Z,100.00
2022-11-17T06:28:23.018Z,100.00
2022-11-17T06:31:27.786Z,100.00
2022-11-17T06:34:31.788Z,100.00
2022-11-17T06:37:33.816Z,100.00
2022-11-17T06:40:36.190Z,100.00
2022-11-17T06:43:38.707Z,100.00
2022-11-17T06:46:46.136Z,100.00
2022-11-17T06:49:50.806Z,100.00
2022-11-17T06:52:57.305Z,100.00
2022-11-17T06:56:02.658Z,100.00
2022-11-17T06:59:05.138Z,100.00
2022-11-17T07:02:07.204Z,100.00
2022-11-17T07:05:09.899Z,100.00
2022-11-17T07:08:11.966Z,100.00
2022-11-17T07:11:16.588Z,100.00
2022-11-17T07:14:18.707Z,100.00
2022-11-17T07:17:21.042Z,100.00
2022-11-17T07:20:23.155Z,100.00
2022-11-17T07:23:25.531Z,100.00
2022-11-17T07:26:27.819Z,100.00
2022-11-17T07:29:30.782Z,100.00
2022-11-17T07:32:34.112Z,100.00
2022-11-17T07:35:37.275Z,100.00
2022-11-17T07:38:40.404Z,100.00
2022-11-17T07:41:43.123Z,100.00
2022-11-17T07:44:45.426Z,100.00
2022-11-17T07:47:55.330Z,100.00
2022-11-17T07:51:01.267Z,100.00
2022-11-17T07:54:03.787Z,100.00
2022-11-17T07:57:05.937Z,100.00
2022-11-17T08:00:08.855Z,100.00
2022-11-17T08:03:13.984Z,100.00
2022-11-17T08:06:17.111Z,100.00
2022-11-17T08:09:19.348Z,100.00
2022-11-17T08:12:21.941Z,100.00
2022-11-17T08:15:24.414Z,100.00
2022-11-17T08:18:28.451Z,100.00
2022-11-17T08:21:30.661Z,100.00
2022-11-17T08:24:33.084Z,100.00
2022-11-17T08:27:35.149Z,98.99
2022-11-17T08:30:37.582Z,99.10
2022-11-17T08:33:40.008Z,100.00
2022-11-17T08:36:42.696Z,100.00
2022-11-17T08:39:44.884Z,100.00
2022-11-17T08:42:47.446Z,97.51
2022-11-17T08:45:49.538Z,96.46
2022-11-17T08:48:56.911Z,95.05
2022-11-17T08:51:59.434Z,95.53
2022-11-17T08:55:02.591Z,95.80
2022-11-17T08:58:04.770Z,95.67
2022-11-17T09:01:18.374Z,95.39
2022-11-17T09:04:20.548Z,96.94
2022-11-17T09:07:23.047Z,98.07
2022-11-17T09:10:25.157Z,97.02
2022-11-17T09:13:27.498Z,97.10
2022-11-17T09:16:29.822Z,96.11
2022-11-17T09:19:32.143Z,95.78
2022-11-17T09:22:34.258Z,95.49
2022-11-17T09:25:36.621Z,97.96
2022-11-17T09:28:39.650Z,96.77
2022-11-17T09:31:42.320Z,96.83
2022-11-17T09:34:44.445Z,96.25
2022-11-17T09:37:46.863Z,97.27
2022-11-17T09:40:49.080Z,96.23
2022-11-17T09:44:11.690Z,95.68
2022-11-17T09:47:46.763Z,94.40
2022-11-17T09:50:50.487Z,93.68
2022-11-17T09:54:01.573Z,93.82
2022-11-17T09:57:05.943Z,95.12
2022-11-17T10:00:11.606Z,91.58
2022-11-17T10:03:24.807Z,91.19
2022-11-17T10:06:29.461Z,90.75
2022-11-17T10:09:45.860Z,89.37
2022-11-17T10:12:53.322Z,91.63
2022-11-17T10:15:58.121Z,89.44
2022-11-17T10:19:21.951Z,88.44
2022-11-17T10:22:34.569Z,84.89
2022-11-17T10:25:39.175Z,84.94
2022-11-17T10:28:41.573Z,85.67
2022-11-17T10:31:45.888Z,88.29
2022-11-17T10:34:48.299Z,88.73
2022-11-17T10:37:56.814Z,87.96
2022-11-17T10:41:02.999Z,86.74
2022-11-17T10:44:19.386Z,88.55
2022-11-17T10:47:40.629Z,86.67
2022-11-17T10:50:56.402Z,86.68
2022-11-17T10:54:19.331Z,85.98
2022-11-17T10:57:26.494Z,86.08
2022-11-17T11:00:32.558Z,85.88
2022-11-17T11:03:35.321Z,83.36
2022-11-17T11:06:37.934Z,84.14
2022-11-17T11:09:48.251Z,84.62
2022-11-17T11:13:02.422Z,85.03
2022-11-17T11:16:05.217Z,82.58
2022-11-17T11:19:14.483Z,82.01
2022-11-17T11:22:37.958Z,81.59
2022-11-17T11:25:46.070Z,81.01
2022-11-17T11:29:27.896Z,79.75
2022-11-17T11:32:48.736Z,80.68
2022-11-17T11:36:15.102Z,79.90
2022-11-17T11:39:35.891Z,82.61
2022-11-17T11:42:49.553Z,80.84
2022-11-17T11:46:03.244Z,82.72
2022-11-17T11:49:29.798Z,82.88
2022-11-17T11:52:38.033Z,83.90
2022-11-17T11:55:41.343Z,83.08
2022-11-17T11:58:53.556Z,80.64
2022-11-17T12:02:14.561Z,81.24
2022-11-17T12:05:26.438Z,80.52
2022-11-17T12:08:38.262Z,79.77
2022-11-17T12:12:00.652Z,78.77
2022-11-17T12:15:09.197Z,78.56
2022-11-17T12:18:13.316Z,77.60
2022-11-17T12:21:23.737Z,77.70
2022-11-17T12:24:37.834Z,77.68
2022-11-17T12:27:39.893Z,77.81
2022-11-17T12:30:45.305Z,79.61
2022-11-17T12:33:53.316Z,78.63
2022-11-17T12:37:14.711Z,80.32
2022-11-17T12:40:57.286Z,79.11
2022-11-17T12:44:37.591Z,80.29
2022-11-17T12:47:44.310Z,81.20
2022-11-17T12:51:03.399Z,78.39
2022-11-17T12:54:35.771Z,79.82
2022-11-17T12:57:38.975Z,75.75
2022-11-17T13:01:04.855Z,77.11
2022-11-17T13:04:16.229Z,76.00
